sensor_id;sensor_type;location;lat;lon;timestamp;P1;durP1;ratioP1;P2;durP2;ratioP2
10410;SDS011;5251;52.112;8.606;2023-04-01T00:00:17;2.00;;;1.27;;
10410;SDS011;5251;52.112;8.606;2023-04-01T00:02:43;3.17;;;1.48;;
10410;SDS011;5251;52.112;8.606;2023-04-01T00:05:09;1.80;;;1.30;;
10410;SDS011;5251;52.112;8.606;2023-04-01T00:07:36;2.05;;;1.67;;
10410;SDS011;5251;52.112;8.606;2023-04-01T00:10:03;2.90;;;1.50;;
10410;SDS011;5251;52.112;8.606;2023-04-01T00:12:30;1.63;;;1.13;;
10410;SDS011;5251;52.112;8.606;2023-04-01T00:14:55;1.48;;;1.35;;
10410;SDS011;5251;52.112;8.606;2023-04-01T00:17:21;2.85;;;1.38;;
10410;SDS011;5251;52.112;8.606;2023-04-01T00:19:46;1.55;;;1.20;;
10410;SDS011;5251;52.112;8.606;2023-04-01T00:22:13;2.50;;;1.20;;
10410;SDS011;5251;52.112;8.606;2023-04-01T00:24:38;2.92;;;1.40;;
10410;SDS011;5251;52.112;8.606;2023-04-01T00:27:04;2.33;;;1.30;;
10410;SDS011;5251;52.112;8.606;2023-04-01T00:29:30;3.10;;;1.42;;
10410;SDS011;5251;52.112;8.606;2023-04-01T00:31:56;1.67;;;1.20;;
10410;SDS011;5251;52.112;8.606;2023-04-01T00:34:22;1.85;;;1.10;;
10410;SDS011;5251;52.112;8.606;2023-04-01T00:36:49;5.20;;;1.33;;
10410;SDS011;5251;52.112;8.606;2023-04-01T00:39:15;2.38;;;1.30;;
10410;SDS011;5251;52.112;8.606;2023-04-01T00:41:41;2.97;;;0.93;;
10410;SDS011;5251;52.112;8.606;2023-04-01T00:44:14;2.15;;;1.10;;
10410;SDS011;5251;52.112;8.606;2023-04-01T00:46:49;3.08;;;0.90;;
10410;SDS011;5251;52.112;8.606;2023-04-01T00:49:16;1.95;;;0.70;;
10410;SDS011;5251;52.112;8.606;2023-04-01T00:51:44;2.00;;;1.00;;
10410;SDS011;5251;52.112;8.606;2023-04-01T00:54:13;1.75;;;0.90;;
10410;SDS011;5251;52.112;8.606;2023-04-01T00:56:47;3.03;;;0.93;;
10410;SDS011;5251;52.112;8.606;2023-04-01T00:59:19;2.97;;;1.20;;
10410;SDS011;5251;52.112;8.606;2023-04-01T01:01:49;1.75;;;1.00;;
10410;SDS011;5251;52.112;8.606;2023-04-01T01:12:30;1.65;;;0.90;;
10410;SDS011;5251;52.112;8.606;2023-04-01T01:15:02;1.02;;;0.77;;
10410;SDS011;5251;52.112;8.606;2023-04-01T01:20:52;1.75;;;1.10;;
10410;SDS011;5251;52.112;8.606;2023-04-01T01:26:41;1.08;;;0.80;;
10410;SDS011;5251;52.112;8.606;2023-04-01T01:34:55;1.92;;;0.75;;
10410;SDS011;5251;52.112;8.606;2023-04-01T01:37:35;1.45;;;0.65;;
10410;SDS011;5251;52.112;8.606;2023-04-01T01:40:05;1.20;;;0.77;;
10410;SDS011;5251;52.112;8.606;2023-04-01T01:42:34;1.48;;;0.80;;
10410;SDS011;5251;52.112;8.606;2023-04-01T01:45:04;1.60;;;0.90;;
10410;SDS011;5251;52.112;8.606;2023-04-01T01:47:31;1.58;;;1.15;;
10410;SDS011;5251;52.112;8.606;2023-04-01T01:49:59;1.73;;;0.80;;
10410;SDS011;5251;52.112;8.606;2023-04-01T01:52:29;1.05;;;0.70;;
10410;SDS011;5251;52.112;8.606;2023-04-01T01:54:55;3.05;;;1.02;;
10410;SDS011;5251;52.112;8.606;2023-04-01T01:57:26;2.03;;;0.98;;
10410;SDS011;5251;52.112;8.606;2023-04-01T02:00:00;0.60;;;0.60;;
10410;SDS011;5251;52.112;8.606;2023-04-01T02:02:37;2.15;;;0.75;;
10410;SDS011;5251;52.112;8.606;2023-04-01T02:05:05;1.00;;;0.77;;
10410;SDS011;5251;52.112;8.606;2023-04-01T02:07:33;1.52;;;0.90;;
10410;SDS011;5251;52.112;8.606;2023-04-01T02:10:02;1.27;;;0.80;;
10410;SDS011;5251;52.112;8.606;2023-04-01T02:12:29;1.35;;;0.75;;
10410;SDS011;5251;52.112;8.606;2023-04-01T02:17:28;1.05;;;0.70;;
10410;SDS011;5251;52.112;8.606;2023-04-01T02:22:26;0.70;;;0.60;;
10410;SDS011;5251;52.112;8.606;2023-04-01T02:24:56;1.70;;;0.73;;
10410;SDS011;5251;52.112;8.606;2023-04-01T02:27:25;0.80;;;0.73;;
10410;SDS011;5251;52.112;8.606;2023-04-01T02:29:51;1.00;;;0.70;;
10410;SDS011;5251;52.112;8.606;2023-04-01T02:32:17;1.02;;;0.60;;
10410;SDS011;5251;52.112;8.606;2023-04-01T02:34:45;0.68;;;0.55;;
10410;SDS011;5251;52.112;8.606;2023-04-01T02:37:11;0.90;;;0.52;;
10410;SDS011;5251;52.112;8.606;2023-04-01T02:39:38;1.08;;;0.68;;
10410;SDS011;5251;52.112;8.606;2023-04-01T02:42:03;0.80;;;0.65;;
10410;SDS011;5251;52.112;8.606;2023-04-01T02:44:29;1.17;;;0.60;;
10410;SDS011;5251;52.112;8.606;2023-04-01T02:46:55;0.63;;;0.60;;
10410;SDS011;5251;52.112;8.606;2023-04-01T02:49:20;1.17;;;0.70;;
10410;SDS011;5251;52.112;8.606;2023-04-01T02:51:46;1.35;;;0.70;;
10410;SDS011;5251;52.112;8.606;2023-04-01T02:54:12;1.00;;;0.50;;
10410;SDS011;5251;52.112;8.606;2023-04-01T02:56:37;1.45;;;0.70;;
10410;SDS011;5251;52.112;8.606;2023-04-01T02:59:03;1.08;;;0.82;;
10410;SDS011;5251;52.112;8.606;2023-04-01T03:01:28;0.90;;;0.70;;
10410;SDS011;5251;52.112;8.606;2023-04-01T03:03:54;0.98;;;0.70;;
10410;SDS011;5251;52.112;8.606;2023-04-01T03:06:20;1.50;;;0.68;;
10410;SDS011;5251;52.112;8.606;2023-04-01T03:08:45;1.00;;;0.60;;
10410;SDS011;5251;52.112;8.606;2023-04-01T03:11:11;1.00;;;0.60;;
10410;SDS011;5251;52.112;8.606;2023-04-01T03:13:37;1.40;;;0.65;;
10410;SDS011;5251;52.112;8.606;2023-04-01T03:16:03;0.60;;;0.35;;
10410;SDS011;5251;52.112;8.606;2023-04-01T03:18:29;0.50;;;0.40;;
10410;SDS011;5251;52.112;8.606;2023-04-01T03:20:54;1.83;;;0.50;;
10410;SDS011;5251;52.112;8.606;2023-04-01T03:23:20;0.40;;;0.40;;
10410;SDS011;5251;52.112;8.606;2023-04-01T03:25:46;0.80;;;0.50;;
10410;SDS011;5251;52.112;8.606;2023-04-01T03:28:12;0.93;;;0.70;;
10410;SDS011;5251;52.112;8.606;2023-04-01T03:30:39;1.27;;;0.40;;
10410;SDS011;5251;52.112;8.606;2023-04-01T03:33:04;1.83;;;0.50;;
10410;SDS011;5251;52.112;8.606;2023-04-01T03:35:30;0.40;;;0.40;;
10410;SDS011;5251;52.112;8.606;2023-04-01T03:37:56;1.80;;;0.70;;
10410;SDS011;5251;52.112;8.606;2023-04-01T03:40:21;1.48;;;0.60;;
10410;SDS011;5251;52.112;8.606;2023-04-01T03:42:48;0.47;;;0.30;;
10410;SDS011;5251;52.112;8.606;2023-04-01T03:45:13;0.75;;;0.40;;
10410;SDS011;5251;52.112;8.606;2023-04-01T03:47:39;1.15;;;0.50;;
10410;SDS011;5251;52.112;8.606;2023-04-01T03:50:05;0.47;;;0.40;;
10410;SDS011;5251;52.112;8.606;2023-04-01T03:52:32;1.85;;;0.50;;
10410;SDS011;5251;52.112;8.606;2023-04-01T03:54:58;0.43;;;0.40;;
10410;SDS011;5251;52.112;8.606;2023-04-01T03:57:23;1.55;;;0.45;;
10410;SDS011;5251;52.112;8.606;2023-04-01T03:59:49;0.40;;;0.35;;
10410;SDS011;5251;52.112;8.606;2023-04-01T04:02:14;1.27;;;0.60;;
10410;SDS011;5251;52.112;8.606;2023-04-01T04:04:40;0.47;;;0.43;;
10410;SDS011;5251;52.112;8.606;2023-04-01T04:07:06;0.85;;;0.63;;
10410;SDS011;5251;52.112;8.606;2023-04-01T04:09:32;0.47;;;0.43;;
10410;SDS011;5251;52.112;8.606;2023-04-01T04:11:58;1.15;;;0.60;;
10410;SDS011;5251;52.112;8.606;2023-04-01T04:14:24;1.15;;;0.70;;
10410;SDS011;5251;52.112;8.606;2023-04-01T04:16:49;0.88;;;0.50;;
10410;SDS011;5251;52.112;8.606;2023-04-01T04:19:15;0.60;;;0.40;;
10410;SDS011;5251;52.112;8.606;2023-04-01T04:21:41;0.93;;;0.50;;
10410;SDS011;5251;52.112;8.606;2023-04-01T04:24:06;1.63;;;0.60;;
10410;SDS011;5251;52.112;8.606;2023-04-01T04:26:32;0.60;;;0.57;;
10410;SDS011;5251;52.112;8.606;2023-04-01T04:28:58;1.58;;;0.70;;
10410;SDS011;5251;52.112;8.606;2023-04-01T04:31:24;0.60;;;0.40;;
10410;SDS011;5251;52.112;8.606;2023-04-01T04:33:51;0.90;;;0.43;;
10410;SDS011;5251;52.112;8.606;2023-04-01T04:36:17;1.02;;;0.55;;
10410;SDS011;5251;52.112;8.606;2023-04-01T04:38:44;0.63;;;0.50;;
10410;SDS011;5251;52.112;8.606;2023-04-01T04:41:10;1.77;;;0.70;;
10410;SDS011;5251;52.112;8.606;2023-04-01T04:43:38;0.75;;;0.45;;
10410;SDS011;5251;52.112;8.606;2023-04-01T04:46:08;1.83;;;0.60;;
10410;SDS011;5251;52.112;8.606;2023-04-01T04:48:34;0.43;;;0.40;;
10410;SDS011;5251;52.112;8.606;2023-04-01T04:51:00;0.60;;;0.60;;
10410;SDS011;5251;52.112;8.606;2023-04-01T04:53:27;1.75;;;0.60;;
10410;SDS011;5251;52.112;8.606;2023-04-01T04:55:52;1.00;;;0.50;;
10410;SDS011;5251;52.112;8.606;2023-04-01T04:58:18;1.65;;;0.60;;
10410;SDS011;5251;52.112;8.606;2023-04-01T05:00:44;0.63;;;0.50;;
10410;SDS011;5251;52.112;8.606;2023-04-01T05:03:11;0.73;;;0.55;;
10410;SDS011;5251;52.112;8.606;2023-04-01T05:05:37;1.45;;;0.82;;
10410;SDS011;5251;52.112;8.606;2023-04-01T05:08:03;1.80;;;0.70;;
10410;SDS011;5251;52.112;8.606;2023-04-01T05:10:29;1.27;;;0.55;;
10410;SDS011;5251;52.112;8.606;2023-04-01T05:12:55;0.40;;;0.40;;
10410;SDS011;5251;52.112;8.606;2023-04-01T05:15:21;0.50;;;0.47;;
10410;SDS011;5251;52.112;8.606;2023-04-01T05:17:47;1.17;;;0.63;;
10410;SDS011;5251;52.112;8.606;2023-04-01T05:20:12;0.77;;;0.52;;
10410;SDS011;5251;52.112;8.606;2023-04-01T05:22:39;0.80;;;0.70;;
10410;SDS011;5251;52.112;8.606;2023-04-01T05:25:05;1.35;;;0.40;;
10410;SDS011;5251;52.112;8.606;2023-04-01T05:27:30;0.40;;;0.40;;
10410;SDS011;5251;52.112;8.606;2023-04-01T05:29:56;0.50;;;0.50;;
10410;SDS011;5251;52.112;8.606;2023-04-01T05:32:22;0.60;;;0.40;;
10410;SDS011;5251;52.112;8.606;2023-04-01T05:34:50;0.30;;;0.30;;
10410;SDS011;5251;52.112;8.606;2023-04-01T05:37:16;0.70;;;0.50;;
10410;SDS011;5251;52.112;8.606;2023-04-01T05:39:42;0.45;;;0.45;;
10410;SDS011;5251;52.112;8.606;2023-04-01T05:42:08;0.50;;;0.50;;
10410;SDS011;5251;52.112;8.606;2023-04-01T05:44:33;0.50;;;0.40;;
10410;SDS011;5251;52.112;8.606;2023-04-01T05:46:59;0.50;;;0.50;;
10410;SDS011;5251;52.112;8.606;2023-04-01T05:49:25;0.50;;;0.50;;
10410;SDS011;5251;52.112;8.606;2023-04-01T05:51:51;0.55;;;0.55;;
10410;SDS011;5251;52.112;8.606;2023-04-01T05:54:17;0.57;;;0.45;;
10410;SDS011;5251;52.112;8.606;2023-04-01T05:56:42;2.53;;;0.63;;
10410;SDS011;5251;52.112;8.606;2023-04-01T05:59:11;1.05;;;0.55;;
10410;SDS011;5251;52.112;8.606;2023-04-01T06:01:37;3.28;;;0.80;;
10410;SDS011;5251;52.112;8.606;2023-04-01T06:04:03;0.98;;;0.57;;
10410;SDS011;5251;52.112;8.606;2023-04-01T06:06:29;1.10;;;0.40;;
10410;SDS011;5251;52.112;8.606;2023-04-01T06:08:57;0.63;;;0.50;;
10410;SDS011;5251;52.112;8.606;2023-04-01T06:17:27;1.40;;;0.70;;
10410;SDS011;5251;52.112;8.606;2023-04-01T06:28:35;0.82;;;0.60;;
10410;SDS011;5251;52.112;8.606;2023-04-01T06:34:36;0.35;;;0.35;;
10410;SDS011;5251;52.112;8.606;2023-04-01T06:37:55;1.58;;;0.50;;
10410;SDS011;5251;52.112;8.606;2023-04-01T06:43:27;0.65;;;0.40;;
10410;SDS011;5251;52.112;8.606;2023-04-01T06:57:55;1.13;;;0.63;;
10410;SDS011;5251;52.112;8.606;2023-04-01T07:00:31;0.43;;;0.30;;
10410;SDS011;5251;52.112;8.606;2023-04-01T07:05:47;0.30;;;0.30;;
10410;SDS011;5251;52.112;8.606;2023-04-01T07:08:18;0.50;;;0.50;;
10410;SDS011;5251;52.112;8.606;2023-04-01T07:10:55;0.40;;;0.40;;
10410;SDS011;5251;52.112;8.606;2023-04-01T07:13:39;0.52;;;0.47;;
10410;SDS011;5251;52.112;8.606;2023-04-01T07:19:03;0.70;;;0.40;;
10410;SDS011;5251;52.112;8.606;2023-04-01T07:21:38;0.90;;;0.50;;
10410;SDS011;5251;52.112;8.606;2023-04-01T07:24:15;0.35;;;0.35;;
10410;SDS011;5251;52.112;8.606;2023-04-01T07:26:54;0.95;;;0.60;;
10410;SDS011;5251;52.112;8.606;2023-04-01T07:29:21;1.27;;;0.75;;
10410;SDS011;5251;52.112;8.606;2023-04-01T07:34:44;0.70;;;0.52;;
10410;SDS011;5251;52.112;8.606;2023-04-01T07:37:28;0.50;;;0.50;;
10410;SDS011;5251;52.112;8.606;2023-04-01T07:45:36;0.52;;;0.50;;
10410;SDS011;5251;52.112;8.606;2023-04-01T08:06:28;0.55;;;0.43;;
10410;SDS011;5251;52.112;8.606;2023-04-01T08:17:28;1.00;;;0.60;;
10410;SDS011;5251;52.112;8.606;2023-04-01T08:22:42;1.17;;;0.77;;
10410;SDS011;5251;52.112;8.606;2023-04-01T08:25:25;0.63;;;0.60;;
10410;SDS011;5251;52.112;8.606;2023-04-01T08:28:09;0.60;;;0.60;;
10410;SDS011;5251;52.112;8.606;2023-04-01T08:31:24;0.80;;;0.80;;
10410;SDS011;5251;52.112;8.606;2023-04-01T08:33:32;1.60;;;0.80;;
10410;SDS011;5251;52.112;8.606;2023-04-01T08:36:02;1.00;;;1.00;;
10410;SDS011;5251;52.112;8.606;2023-04-01T08:46:08;0.82;;;0.82;;
10410;SDS011;5251;52.112;8.606;2023-04-01T08:48:56;1.48;;;1.05;;
10410;SDS011;5251;52.112;8.606;2023-04-01T08:51:45;1.35;;;1.13;;
10410;SDS011;5251;52.112;8.606;2023-04-01T09:05:18;2.47;;;1.10;;
10410;SDS011;5251;52.112;8.606;2023-04-01T09:08:16;0.95;;;0.93;;
10410;SDS011;5251;52.112;8.606;2023-04-01T09:13:44;0.80;;;0.80;;
10410;SDS011;5251;52.112;8.606;2023-04-01T09:19:04;0.70;;;0.70;;
10410;SDS011;5251;52.112;8.606;2023-04-01T09:21:43;0.90;;;0.80;;
10410;SDS011;5251;52.112;8.606;2023-04-01T09:27:28;0.93;;;0.75;;
10410;SDS011;5251;52.112;8.606;2023-04-01T09:38:30;0.65;;;0.65;;
10410;SDS011;5251;52.112;8.606;2023-04-01T09:41:31;0.80;;;0.80;;
10410;SDS011;5251;52.112;8.606;2023-04-01T10:00:42;0.80;;;0.70;;
10410;SDS011;5251;52.112;8.606;2023-04-01T10:31:22;1.20;;;0.63;;
10410;SDS011;5251;52.112;8.606;2023-04-01T10:40:13;0.70;;;0.60;;
10410;SDS011;5251;52.112;8.606;2023-04-01T10:57:02;2.08;;;0.30;;
10410;SDS011;5251;52.112;8.606;2023-04-01T11:03:06;0.40;;;0.40;;
10410;SDS011;5251;52.112;8.606;2023-04-01T11:09:00;0.40;;;0.40;;
10410;SDS011;5251;52.112;8.606;2023-04-01T11:36:56;1.05;;;0.60;;
10410;SDS011;5251;52.112;8.606;2023-04-01T11:39:42;0.50;;;0.50;;
10410;SDS011;5251;52.112;8.606;2023-04-01T11:45:28;0.65;;;0.65;;
10410;SDS011;5251;52.112;8.606;2023-04-01T11:48:19;0.60;;;0.60;;
10410;SDS011;5251;52.112;8.606;2023-04-01T12:02:42;0.80;;;0.80;;
10410;SDS011;5251;52.112;8.606;2023-04-01T12:08:21;1.00;;;0.90;;
10410;SDS011;5251;52.112;8.606;2023-04-01T12:11:09;1.05;;;0.95;;
10410;SDS011;5251;52.112;8.606;2023-04-01T12:27:05;0.88;;;0.80;;
10410;SDS011;5251;52.112;8.606;2023-04-01T12:32:35;1.55;;;1.00;;
10410;SDS011;5251;52.112;8.606;2023-04-01T12:40:46;0.88;;;0.73;;
10410;SDS011;5251;52.112;8.606;2023-04-01T12:52:13;1.35;;;0.90;;
10410;SDS011;5251;52.112;8.606;2023-04-01T12:54:53;0.65;;;0.65;;
10410;SDS011;5251;52.112;8.606;2023-04-01T13:10:38;0.52;;;0.52;;
10410;SDS011;5251;52.112;8.606;2023-04-01T13:19:27;0.70;;;0.70;;
10410;SDS011;5251;52.112;8.606;2023-04-01T13:22:03;0.60;;;0.60;;
10410;SDS011;5251;52.112;8.606;2023-04-01T13:24:55;0.75;;;0.68;;
10410;SDS011;5251;52.112;8.606;2023-04-01T13:27:36;0.45;;;0.40;;
10410;SDS011;5251;52.112;8.606;2023-04-01T13:30:26;0.43;;;0.43;;
10410;SDS011;5251;52.112;8.606;2023-04-01T13:33:01;0.50;;;0.50;;
10410;SDS011;5251;52.112;8.606;2023-04-01T13:35:52;0.40;;;0.40;;
10410;SDS011;5251;52.112;8.606;2023-04-01T13:38:44;0.60;;;0.60;;
10410;SDS011;5251;52.112;8.606;2023-04-01T13:44:17;0.50;;;0.50;;
10410;SDS011;5251;52.112;8.606;2023-04-01T13:52:19;0.30;;;0.30;;
10410;SDS011;5251;52.112;8.606;2023-04-01T14:17:30;0.32;;;0.32;;
10410;SDS011;5251;52.112;8.606;2023-04-01T14:23:22;0.40;;;0.40;;
10410;SDS011;5251;52.112;8.606;2023-04-01T14:32:23;0.40;;;0.40;;
10410;SDS011;5251;52.112;8.606;2023-04-01T14:51:16;0.50;;;0.50;;
10410;SDS011;5251;52.112;8.606;2023-04-01T14:59:10;1.08;;;0.73;;
10410;SDS011;5251;52.112;8.606;2023-04-01T15:02:01;0.60;;;0.60;;
10410;SDS011;5251;52.112;8.606;2023-04-01T15:08:01;0.60;;;0.60;;
10410;SDS011;5251;52.112;8.606;2023-04-01T15:13:24;1.35;;;0.70;;
10410;SDS011;5251;52.112;8.606;2023-04-01T15:26:50;0.70;;;0.70;;
10410;SDS011;5251;52.112;8.606;2023-04-01T15:34:50;0.70;;;0.70;;
10410;SDS011;5251;52.112;8.606;2023-04-01T15:40:22;0.60;;;0.60;;
10410;SDS011;5251;52.112;8.606;2023-04-01T15:43:07;0.70;;;0.70;;
10410;SDS011;5251;52.112;8.606;2023-04-01T15:45:51;1.35;;;0.60;;
10410;SDS011;5251;52.112;8.606;2023-04-01T15:48:31;0.88;;;0.63;;
10410;SDS011;5251;52.112;8.606;2023-04-01T15:51:11;0.60;;;0.60;;
10410;SDS011;5251;52.112;8.606;2023-04-01T15:53:56;0.47;;;0.47;;
10410;SDS011;5251;52.112;8.606;2023-04-01T15:56:44;0.32;;;0.32;;
10410;SDS011;5251;52.112;8.606;2023-04-01T16:06:11;0.82;;;0.60;;
10410;SDS011;5251;52.112;8.606;2023-04-01T16:19:52;0.95;;;0.95;;
10410;SDS011;5251;52.112;8.606;2023-04-01T16:22:30;1.10;;;0.88;;
10410;SDS011;5251;52.112;8.606;2023-04-01T16:25:17;2.42;;;1.42;;
10410;SDS011;5251;52.112;8.606;2023-04-01T16:27:56;0.88;;;0.88;;
10410;SDS011;5251;52.112;8.606;2023-04-01T16:30:42;1.83;;;1.73;;
10410;SDS011;5251;52.112;8.606;2023-04-01T16:33:14;2.85;;;1.90;;
10410;SDS011;5251;52.112;8.606;2023-04-01T16:36:04;2.03;;;1.60;;
10410;SDS011;5251;52.112;8.606;2023-04-01T16:41:18;1.50;;;1.40;;
10410;SDS011;5251;52.112;8.606;2023-04-01T16:43:51;1.85;;;1.70;;
10410;SDS011;5251;52.112;8.606;2023-04-01T17:03:33;1.50;;;1.40;;
10410;SDS011;5251;52.112;8.606;2023-04-01T17:11:24;1.25;;;1.15;;
10410;SDS011;5251;52.112;8.606;2023-04-01T17:14:03;2.22;;;1.38;;
10410;SDS011;5251;52.112;8.606;2023-04-01T17:25:32;1.50;;;1.40;;
10410;SDS011;5251;52.112;8.606;2023-04-01T17:39:03;2.10;;;1.70;;
10410;SDS011;5251;52.112;8.606;2023-04-01T17:41:48;2.03;;;1.83;;
10410;SDS011;5251;52.112;8.606;2023-04-01T17:47:02;1.80;;;1.70;;
10410;SDS011;5251;52.112;8.606;2023-04-01T17:50:24;1.90;;;1.80;;
10410;SDS011;5251;52.112;8.606;2023-04-01T17:55:46;1.67;;;1.58;;
10410;SDS011;5251;52.112;8.606;2023-04-01T18:01:35;1.60;;;1.50;;
10410;SDS011;5251;52.112;8.606;2023-04-01T18:04:09;1.75;;;1.65;;
10410;SDS011;5251;52.112;8.606;2023-04-01T18:09:35;1.73;;;1.58;;
10410;SDS011;5251;52.112;8.606;2023-04-01T18:12:37;1.40;;;1.30;;
10410;SDS011;5251;52.112;8.606;2023-04-01T18:23:45;1.60;;;1.50;;
10410;SDS011;5251;52.112;8.606;2023-04-01T18:26:23;1.50;;;1.40;;
10410;SDS011;5251;52.112;8.606;2023-04-01T18:29:11;1.70;;;1.60;;
10410;SDS011;5251;52.112;8.606;2023-04-01T18:31:49;1.85;;;1.42;;
10410;SDS011;5251;52.112;8.606;2023-04-01T18:34:20;1.58;;;1.48;;
10410;SDS011;5251;52.112;8.606;2023-04-01T18:39:50;1.45;;;1.35;;
10410;SDS011;5251;52.112;8.606;2023-04-01T18:45:23;1.48;;;1.38;;
10410;SDS011;5251;52.112;8.606;2023-04-01T18:48:15;1.60;;;1.50;;
10410;SDS011;5251;52.112;8.606;2023-04-01T18:50:55;1.50;;;1.40;;
10410;SDS011;5251;52.112;8.606;2023-04-01T18:53:28;1.65;;;1.55;;
10410;SDS011;5251;52.112;8.606;2023-04-01T18:56:30;1.83;;;1.70;;
10410;SDS011;5251;52.112;8.606;2023-04-01T19:01:28;1.80;;;1.70;;
10410;SDS011;5251;52.112;8.606;2023-04-01T19:06:57;2.03;;;1.92;;
10410;SDS011;5251;52.112;8.606;2023-04-01T19:09:32;2.20;;;2.10;;
10410;SDS011;5251;52.112;8.606;2023-04-01T19:20:42;2.15;;;1.95;;
10410;SDS011;5251;52.112;8.606;2023-04-01T19:24:31;2.47;;;2.25;;
10410;SDS011;5251;52.112;8.606;2023-04-01T19:26:49;1.80;;;1.70;;
10410;SDS011;5251;52.112;8.606;2023-04-01T19:32:34;2.65;;;2.45;;
10410;SDS011;5251;52.112;8.606;2023-04-01T19:38:28;2.08;;;1.88;;
10410;SDS011;5251;52.112;8.606;2023-04-01T19:43:46;2.15;;;2.05;;
10410;SDS011;5251;52.112;8.606;2023-04-01T19:46:32;1.83;;;1.42;;
10410;SDS011;5251;52.112;8.606;2023-04-01T19:58:05;1.60;;;1.50;;
10410;SDS011;5251;52.112;8.606;2023-04-01T20:00:43;1.65;;;1.55;;
10410;SDS011;5251;52.112;8.606;2023-04-01T20:14:25;3.00;;;1.98;;
10410;SDS011;5251;52.112;8.606;2023-04-01T20:19:45;2.22;;;2.00;;
10410;SDS011;5251;52.112;8.606;2023-04-01T20:27:50;2.20;;;2.00;;
10410;SDS011;5251;52.112;8.606;2023-04-01T20:41:07;2.42;;;2.00;;
10410;SDS011;5251;52.112;8.606;2023-04-01T20:57:45;1.73;;;1.63;;
10410;SDS011;5251;52.112;8.606;2023-04-01T21:00:35;1.70;;;1.60;;
10410;SDS011;5251;52.112;8.606;2023-04-01T21:06:04;3.15;;;1.80;;
10410;SDS011;5251;52.112;8.606;2023-04-01T21:09:15;2.22;;;2.08;;
10410;SDS011;5251;52.112;8.606;2023-04-01T21:12:13;2.10;;;1.95;;
10410;SDS011;5251;52.112;8.606;2023-04-01T21:21:28;3.15;;;2.60;;
10410;SDS011;5251;52.112;8.606;2023-04-01T21:31:49;2.10;;;1.90;;
10410;SDS011;5251;52.112;8.606;2023-04-01T21:34:43;2.92;;;1.98;;
10410;SDS011;5251;52.112;8.606;2023-04-01T21:43:17;1.80;;;1.70;;
10410;SDS011;5251;52.112;8.606;2023-04-01T21:53:44;2.10;;;1.90;;
10410;SDS011;5251;52.112;8.606;2023-04-01T22:07:19;2.20;;;1.98;;
10410;SDS011;5251;52.112;8.606;2023-04-01T22:09:52;2.08;;;1.88;;
10410;SDS011;5251;52.112;8.606;2023-04-01T22:12:31;2.17;;;1.83;;
10410;SDS011;5251;52.112;8.606;2023-04-01T22:19:00;2.30;;;2.10;;
10410;SDS011;5251;52.112;8.606;2023-04-01T22:24:12;3.15;;;2.45;;
10410;SDS011;5251;52.112;8.606;2023-04-01T22:26:53;2.33;;;2.10;;
10410;SDS011;5251;52.112;8.606;2023-04-01T22:32:39;2.00;;;1.80;;
10410;SDS011;5251;52.112;8.606;2023-04-01T22:43:15;2.22;;;2.03;;
10410;SDS011;5251;52.112;8.606;2023-04-01T22:46:02;2.15;;;1.88;;
10410;SDS011;5251;52.112;8.606;2023-04-01T22:48:43;2.15;;;1.95;;
10410;SDS011;5251;52.112;8.606;2023-04-01T22:51:18;2.33;;;2.08;;
10410;SDS011;5251;52.112;8.606;2023-04-01T22:54:02;1.90;;;1.70;;
10410;SDS011;5251;52.112;8.606;2023-04-01T22:56:42;2.75;;;1.92;;
10410;SDS011;5251;52.112;8.606;2023-04-01T23:02:14;2.15;;;1.90;;
10410;SDS011;5251;52.112;8.606;2023-04-01T23:04:45;2.10;;;1.90;;
10410;SDS011;5251;52.112;8.606;2023-04-01T23:07:23;2.22;;;1.83;;
10410;SDS011;5251;52.112;8.606;2023-04-01T23:10:02;3.47;;;2.15;;
10410;SDS011;5251;52.112;8.606;2023-04-01T23:12:36;2.88;;;2.10;;
10410;SDS011;5251;52.112;8.606;2023-04-01T23:15:03;4.15;;;2.65;;
10410;SDS011;5251;52.112;8.606;2023-04-01T23:23:30;2.92;;;2.50;;
10410;SDS011;5251;52.112;8.606;2023-04-01T23:28:59;4.10;;;3.03;;
10410;SDS011;5251;52.112;8.606;2023-04-01T23:36:44;3.15;;;2.85;;
10410;SDS011;5251;52.112;8.606;2023-04-01T23:39:23;3.55;;;2.92;;
10410;SDS011;5251;52.112;8.606;2023-04-01T23:41:53;3.10;;;2.80;;
10410;SDS011;5251;52.112;8.606;2023-04-01T23:44:21;3.60;;;2.72;;
10410;SDS011;5251;52.112;8.606;2023-04-01T23:46:50;4.25;;;2.67;;
10410;SDS011;5251;52.112;8.606;2023-04-01T23:49:24;3.53;;;2.78;;
10410;SDS011;5251;52.112;8.606;2023-04-01T23:57:18;3.13;;;2.75;;
